sensor_id;sensor_type;location;lat;lon;timestamp;P1;durP1;ratioP1;P2;durP2;ratioP2
50689;SDS011;54375;48.298;11.238;2023-04-24T00:06:47;2.65;;;1.27;;
50689;SDS011;54375;48.298;11.238;2023-04-24T00:21:50;3.03;;;1.50;;
50689;SDS011;54375;48.298;11.238;2023-04-24T00:36:53;3.45;;;1.70;;
50689;SDS011;54375;48.298;11.238;2023-04-24T00:51:55;3.88;;;1.50;;
50689;SDS011;54375;48.298;11.238;2023-04-24T01:06:58;1.92;;;1.40;;
50689;SDS011;54375;48.298;11.238;2023-04-24T01:22:01;1.50;;;1.08;;
50689;SDS011;54375;48.298;11.238;2023-04-24T01:37:04;2.13;;;1.05;;
50689;SDS011;54375;48.298;11.238;2023-04-24T01:52:06;1.38;;;0.82;;
50689;SDS011;54375;48.298;11.238;2023-04-24T02:07:08;2.28;;;1.00;;
50689;SDS011;54375;48.298;11.238;2023-04-24T02:22:10;2.20;;;1.10;;
50689;SDS011;54375;48.298;11.238;2023-04-24T02:37:13;2.92;;;1.00;;
50689;SDS011;54375;48.298;11.238;2023-04-24T02:52:15;3.00;;;1.40;;
50689;SDS011;54375;48.298;11.238;2023-04-24T03:07:17;2.65;;;1.20;;
50689;SDS011;54375;48.298;11.238;2023-04-24T03:22:20;5.22;;;1.67;;
50689;SDS011;54375;48.298;11.238;2023-04-24T03:37:22;3.90;;;1.67;;
50689;SDS011;54375;48.298;11.238;2023-04-24T03:52:25;1.83;;;1.20;;
50689;SDS011;54375;48.298;11.238;2023-04-24T04:07:27;4.13;;;1.40;;
50689;SDS011;54375;48.298;11.238;2023-04-24T04:22:29;3.42;;;1.60;;
50689;SDS011;54375;48.298;11.238;2023-04-24T04:37:31;2.95;;;1.10;;
50689;SDS011;54375;48.298;11.238;2023-04-24T04:52:34;1.75;;;0.98;;
50689;SDS011;54375;48.298;11.238;2023-04-24T05:07:36;2.58;;;1.08;;
50689;SDS011;54375;48.298;11.238;2023-04-24T05:22:39;1.88;;;1.20;;
50689;SDS011;54375;48.298;11.238;2023-04-24T05:37:41;3.38;;;1.20;;
50689;SDS011;54375;48.298;11.238;2023-04-24T05:52:44;1.13;;;0.90;;
50689;SDS011;54375;48.298;11.238;2023-04-24T06:07:46;2.35;;;1.17;;
50689;SDS011;54375;48.298;11.238;2023-04-24T06:22:48;1.60;;;0.80;;
50689;SDS011;54375;48.298;11.238;2023-04-24T06:37:50;1.90;;;0.77;;
50689;SDS011;54375;48.298;11.238;2023-04-24T06:52:52;2.47;;;0.60;;
50689;SDS011;54375;48.298;11.238;2023-04-24T07:07:54;1.58;;;0.80;;
50689;SDS011;54375;48.298;11.238;2023-04-24T07:22:57;1.23;;;0.88;;
50689;SDS011;54375;48.298;11.238;2023-04-24T07:37:59;1.58;;;0.60;;
50689;SDS011;54375;48.298;11.238;2023-04-24T07:53:02;2.05;;;0.95;;
50689;SDS011;54375;48.298;11.238;2023-04-24T08:08:04;1.52;;;0.90;;
50689;SDS011;54375;48.298;11.238;2023-04-24T08:23:06;2.95;;;1.52;;
50689;SDS011;54375;48.298;11.238;2023-04-24T08:38:08;1.50;;;1.00;;
50689;SDS011;54375;48.298;11.238;2023-04-24T08:53:10;2.50;;;1.27;;
50689;SDS011;54375;48.298;11.238;2023-04-24T09:08:13;3.30;;;1.38;;
50689;SDS011;54375;48.298;11.238;2023-04-24T09:23:18;4.47;;;1.50;;
50689;SDS011;54375;48.298;11.238;2023-04-24T09:38:20;4.40;;;1.80;;
50689;SDS011;54375;48.298;11.238;2023-04-24T09:53:32;3.70;;;1.77;;
50689;SDS011;54375;48.298;11.238;2023-04-24T10:08:34;4.57;;;1.83;;
50689;SDS011;54375;48.298;11.238;2023-04-24T10:23:38;3.97;;;1.88;;
50689;SDS011;54375;48.298;11.238;2023-04-24T10:38:41;2.03;;;0.90;;
50689;SDS011;54375;48.298;11.238;2023-04-24T10:53:44;1.80;;;1.25;;
50689;SDS011;54375;48.298;11.238;2023-04-24T11:08:47;2.53;;;1.17;;
50689;SDS011;54375;48.298;11.238;2023-04-24T11:23:49;4.47;;;1.90;;
50689;SDS011;54375;48.298;11.238;2023-04-24T11:38:52;3.45;;;1.77;;
50689;SDS011;54375;48.298;11.238;2023-04-24T11:53:54;2.45;;;1.40;;
50689;SDS011;54375;48.298;11.238;2023-04-24T12:08:57;4.05;;;2.13;;
50689;SDS011;54375;48.298;11.238;2023-04-24T12:23:59;5.47;;;1.65;;
50689;SDS011;54375;48.298;11.238;2023-04-24T12:39:01;3.35;;;1.42;;
50689;SDS011;54375;48.298;11.238;2023-04-24T12:54:03;3.65;;;2.20;;
50689;SDS011;54375;48.298;11.238;2023-04-24T13:09:05;3.25;;;1.75;;
50689;SDS011;54375;48.298;11.238;2023-04-24T13:24:08;2.42;;;1.52;;
50689;SDS011;54375;48.298;11.238;2023-04-24T13:39:12;3.08;;;1.83;;
50689;SDS011;54375;48.298;11.238;2023-04-24T13:54:14;4.35;;;2.03;;
50689;SDS011;54375;48.298;11.238;2023-04-24T14:09:16;6.47;;;2.13;;
50689;SDS011;54375;48.298;11.238;2023-04-24T14:24:18;3.58;;;1.70;;
50689;SDS011;54375;48.298;11.238;2023-04-24T14:39:21;3.60;;;1.50;;
50689;SDS011;54375;48.298;11.238;2023-04-24T14:54:23;3.65;;;1.52;;
50689;SDS011;54375;48.298;11.238;2023-04-24T15:09:27;2.33;;;1.23;;
50689;SDS011;54375;48.298;11.238;2023-04-24T15:24:29;2.60;;;1.40;;
50689;SDS011;54375;48.298;11.238;2023-04-24T15:39:31;3.50;;;1.38;;
50689;SDS011;54375;48.298;11.238;2023-04-24T15:54:33;3.58;;;1.50;;
50689;SDS011;54375;48.298;11.238;2023-04-24T16:09:36;2.45;;;1.30;;
50689;SDS011;54375;48.298;11.238;2023-04-24T16:24:38;2.50;;;1.00;;
50689;SDS011;54375;48.298;11.238;2023-04-24T16:39:40;1.83;;;1.02;;
50689;SDS011;54375;48.298;11.238;2023-04-24T16:54:42;3.42;;;1.25;;
50689;SDS011;54375;48.298;11.238;2023-04-24T17:09:44;1.92;;;1.27;;
50689;SDS011;54375;48.298;11.238;2023-04-24T17:24:47;2.95;;;1.70;;
50689;SDS011;54375;48.298;11.238;2023-04-24T17:39:49;2.45;;;1.50;;
50689;SDS011;54375;48.298;11.238;2023-04-24T17:54:52;3.15;;;1.67;;
50689;SDS011;54375;48.298;11.238;2023-04-24T18:09:54;6.95;;;4.07;;
50689;SDS011;54375;48.298;11.238;2023-04-24T18:24:56;3.30;;;2.13;;
50689;SDS011;54375;48.298;11.238;2023-04-24T18:39:58;5.30;;;2.55;;
50689;SDS011;54375;48.298;11.238;2023-04-24T18:55:01;2.88;;;1.63;;
50689;SDS011;54375;48.298;11.238;2023-04-24T19:10:04;3.25;;;1.60;;
50689;SDS011;54375;48.298;11.238;2023-04-24T19:25:07;3.00;;;2.13;;
50689;SDS011;54375;48.298;11.238;2023-04-24T19:40:10;3.60;;;2.08;;
50689;SDS011;54375;48.298;11.238;2023-04-24T19:55:12;2.65;;;1.77;;
50689;SDS011;54375;48.298;11.238;2023-04-24T20:25:41;3.92;;;2.10;;
50689;SDS011;54375;48.298;11.238;2023-04-24T20:40:43;4.10;;;2.33;;
50689;SDS011;54375;48.298;11.238;2023-04-24T20:55:46;4.25;;;2.47;;
50689;SDS011;54375;48.298;11.238;2023-04-24T21:10:48;7.82;;;3.58;;
50689;SDS011;54375;48.298;11.238;2023-04-24T21:25:50;4.72;;;3.00;;
50689;SDS011;54375;48.298;11.238;2023-04-24T21:40:52;7.68;;;3.38;;
50689;SDS011;54375;48.298;11.238;2023-04-24T21:55:55;6.10;;;3.38;;
50689;SDS011;54375;48.298;11.238;2023-04-24T22:10:57;5.60;;;2.92;;
50689;SDS011;54375;48.298;11.238;2023-04-24T22:26:00;5.88;;;2.97;;
50689;SDS011;54375;48.298;11.238;2023-04-24T22:41:02;4.82;;;2.78;;
50689;SDS011;54375;48.298;11.238;2023-04-24T22:56:05;6.20;;;3.55;;
50689;SDS011;54375;48.298;11.238;2023-04-24T23:11:08;10.65;;;4.80;;
50689;SDS011;54375;48.298;11.238;2023-04-24T23:26:10;7.93;;;4.13;;
50689;SDS011;54375;48.298;11.238;2023-04-24T23:41:12;5.53;;;3.20;;
50689;SDS011;54375;48.298;11.238;2023-04-24T23:56:15;6.90;;;4.50;;
